首页
METAR-TAF:

METAR-TAF

机场 :

巴尼亚卢卡, 波斯尼亚和黑塞哥维那

纬度: 44-47N, 经度: 017-13E, 海拔: 156米

当前天气观测

该预报发布于32分钟前的15:30 UTC
风速2节,风向西北
温度 3°C
湿度 93%
气压 989 hPa
能見度: 2000
散云层高于200英尺
多云层高于4000英尺
轻雾

METAR: LQBK 131530Z 31002KT 2000 BR SCT002 BKN040 03/02 Q0989 NOSIG

时间: 17:02 (16:02 UTC)

预报

该预报发布于5小时和2分钟前的11:00 UTC
预报有效从13日的 12点(UTC)到 14日的 12点(UTC)
风速5节,风向东转东南
能見度: 6000
散云层高于1500英尺
多云层高于3000英尺
几率 40% :
短暂存在
从 13日的 12点(UTC)到 13日的 14点(UTC)
能見度: 3000
多云层高于500英尺
轻雾
短暂存在
从 13日的 12点(UTC)到 13日的 16点(UTC)
风速10节,风向
几率 40% :
短暂存在
从 13日的 16点(UTC)到 13日的 21点(UTC)
能見度: 4000
小雨, 轻雾
短暂存在
从 13日的 21点(UTC)到 14日的 12点(UTC)
风速12节,风向西北
能見度: 4000
多云层高于700英尺
阴天层高于2000英尺
几率 30% :
短暂存在
从 14日的 03点(UTC)到 14日的 09点(UTC)
能見度: 2000
多云层高于300英尺
阴天层高于1300英尺
雨, 雪

TAF: LQBK 131100Z 1312/1412 12005KT 6000 SCT015 BKN030 TX05/1314Z TN01/1406Z PROB40 TEMPO 1312/1314 3000 BR BKN005 TEMPO 1312/1316 18010KT PROB40 TEMPO 1316/1321 4000 -RA BR TEMPO 1321/1412 32012KT 4000 RA BKN007 OVC020 PROB30 TEMPO 1403/1409 2000 RASN BKN003 OVC013

超过4000个机场的气象观测和天气预报(METAR&TAF报告)。

可查询的气象台以黄色和红色小点在地图上表示。

将鼠标移到小点上方,可查看气象台名称。

然后点击查看天气观测和预报。

如需切换地图:点击带黑十字的绿色按钮放大地图;点击带横线的绿色按钮缩小地图;或者点击绿色箭头查看邻近地区的地图。


METAR-TAF: